createdAt,value
2019-01-15T00:02:22.595Z,0.60
2019-01-15T00:05:04.689Z,0.70
2019-01-15T00:07:46.689Z,0.70
2019-01-15T00:10:28.513Z,0.70
2019-01-15T00:13:11.542Z,0.70
2019-01-15T00:15:53.456Z,0.70
2019-01-15T00:18:36.442Z,0.70
2019-01-15T00:21:18.363Z,0.80
2019-01-15T00:24:00.118Z,0.70
2019-01-15T00:26:41.938Z,0.80
2019-01-15T00:29:23.999Z,0.80
2019-01-15T00:32:06.102Z,0.80
2019-01-15T00:34:48.890Z,0.80
2019-01-15T00:37:32.464Z,0.80
2019-01-15T00:40:14.569Z,0.70
2019-01-15T00:42:56.375Z,0.80
2019-01-15T00:45:38.616Z,0.80
2019-01-15T00:48:20.392Z,0.80
2019-01-15T00:51:02.285Z,0.80
2019-01-15T00:53:44.200Z,0.80
2019-01-15T00:56:27.110Z,0.80
2019-01-15T00:59:11.079Z,0.80
2019-01-15T01:01:52.874Z,0.90
2019-01-15T01:04:36.774Z,0.90
2019-01-15T01:07:18.917Z,0.90
2019-01-15T01:10:00.726Z,0.90
2019-01-15T01:12:42.629Z,0.90
2019-01-15T01:15:24.730Z,1.00
2019-01-15T01:18:06.875Z,1.00
2019-01-15T01:20:48.389Z,1.00
2019-01-15T01:23:18.764Z,1.00
2019-01-15T01:26:08.186Z,1.00
2019-01-15T01:28:51.226Z,1.10
2019-01-15T01:31:35.374Z,1.10
2019-01-15T01:34:18.399Z,1.20
2019-01-15T01:37:02.085Z,1.20
2019-01-15T01:39:44.184Z,1.30
2019-01-15T01:42:29.549Z,1.40
2019-01-15T01:45:10.137Z,1.50
2019-01-15T01:47:52.185Z,1.50
2019-01-15T01:50:34.145Z,1.50
2019-01-15T01:53:16.205Z,1.60
2019-01-15T01:55:58.378Z,1.60
2019-01-15T01:58:40.145Z,1.70
2019-01-15T02:01:21.986Z,1.70
2019-01-15T02:04:04.260Z,1.70
2019-01-15T02:06:46.099Z,1.70
2019-01-15T02:09:16.477Z,1.70
2019-01-15T02:11:57.960Z,1.80
2019-01-15T02:14:42.404Z,1.80
2019-01-15T02:17:24.292Z,1.80
2019-01-15T02:20:08.210Z,1.80
2019-01-15T02:22:50.389Z,1.80
2019-01-15T02:25:34.495Z,1.80
2019-01-15T02:28:16.505Z,1.80
2019-01-15T02:31:00.450Z,1.80
2019-01-15T02:33:44.318Z,1.80
2019-01-15T02:36:28.356Z,1.80
2019-01-15T02:39:12.449Z,1.80
2019-01-15T02:41:54.314Z,1.80
2019-01-15T02:44:37.203Z,1.70
2019-01-15T02:47:21.154Z,1.70
2019-01-15T02:50:03.239Z,1.70
2019-01-15T02:52:47.290Z,1.60
2019-01-15T02:55:17.685Z,1.60
2019-01-15T02:58:01.312Z,1.60
2019-01-15T03:00:43.239Z,1.60
2019-01-15T03:03:25.358Z,1.60
2019-01-15T03:06:07.577Z,1.60
2019-01-15T03:08:51.983Z,1.50
2019-01-15T03:11:34.336Z,1.50
2019-01-15T03:14:16.505Z,1.40
2019-01-15T03:16:58.668Z,1.50
2019-01-15T03:19:44.227Z,1.50
2019-01-15T03:22:26.022Z,1.60
2019-01-15T03:25:10.171Z,1.60
2019-01-15T03:27:52.360Z,1.70
2019-01-15T03:30:34.502Z,1.70
2019-01-15T03:33:16.395Z,1.90
2019-01-15T03:35:58.306Z,1.80
2019-01-15T03:38:40.268Z,1.90
2019-01-15T03:41:24.278Z,1.90
2019-01-15T03:44:06.158Z,1.90
2019-01-15T03:46:50.297Z,1.90
2019-01-15T03:49:32.068Z,2.00
2019-01-15T03:52:15.946Z,1.50
2019-01-15T03:54:58.245Z,2.00
2019-01-15T03:57:42.307Z,2.00
2019-01-15T04:00:26.257Z,2.00
2019-01-15T04:03:08.178Z,2.10
2019-01-15T04:05:50.353Z,2.00
2019-01-15T04:08:20.750Z,2.00
2019-01-15T04:11:04.162Z,2.00
2019-01-15T04:13:46.641Z,2.00
2019-01-15T04:16:28.858Z,2.00
2019-01-15T04:19:12.996Z,2.00
2019-01-15T04:21:54.905Z,2.00
2019-01-15T04:24:36.770Z,2.00
2019-01-15T04:27:20.070Z,2.00
2019-01-15T04:30:04.130Z,2.00
2019-01-15T04:32:46.041Z,2.00
2019-01-15T04:35:30.044Z,2.10
2019-01-15T04:38:14.396Z,2.10
2019-01-15T04:40:56.190Z,2.10
2019-01-15T04:43:39.089Z,2.10
2019-01-15T04:46:21.290Z,2.10
2019-01-15T04:49:04.212Z,2.10
2019-01-15T04:51:48.464Z,2.10
2019-01-15T04:54:31.273Z,2.20
2019-01-15T04:57:13.641Z,2.20
2019-01-15T04:59:56.602Z,2.20
2019-01-15T05:02:41.193Z,2.20
2019-01-15T05:05:23.385Z,2.20
2019-01-15T05:08:05.155Z,2.20
2019-01-15T05:10:47.168Z,2.20
2019-01-15T05:13:29.214Z,2.20
2019-01-15T05:16:11.273Z,2.20
2019-01-15T05:18:54.031Z,2.20
2019-01-15T05:21:36.530Z,2.20
2019-01-15T05:24:18.478Z,2.20
2019-01-15T05:27:01.257Z,2.20
2019-01-15T05:29:43.128Z,2.10
2019-01-15T05:32:26.010Z,2.10
2019-01-15T05:35:10.080Z,2.10
2019-01-15T05:37:53.347Z,2.20
2019-01-15T05:40:37.843Z,2.20
2019-01-15T05:43:19.795Z,2.20
2019-01-15T05:46:01.889Z,2.30
2019-01-15T05:48:44.257Z,2.30
2019-01-15T05:54:42.802Z,2.30
2019-01-15T05:57:25.236Z,2.30
2019-01-15T06:00:07.074Z,2.30
2019-01-15T06:02:50.878Z,2.30
2019-01-15T06:05:34.065Z,2.30
2019-01-15T06:08:18.401Z,2.30
2019-01-15T06:11:00.315Z,2.40
2019-01-15T06:13:44.131Z,2.40
2019-01-15T06:16:28.244Z,2.40
2019-01-15T06:19:12.196Z,2.40
2019-01-15T06:21:54.197Z,2.40
2019-01-15T06:24:38.002Z,2.40
2019-01-15T06:27:20.106Z,2.50
2019-01-15T06:30:01.954Z,2.50
2019-01-15T06:32:45.022Z,2.40
2019-01-15T06:35:26.895Z,2.40
2019-01-15T06:38:09.825Z,2.40
2019-01-15T06:40:53.951Z,2.50
2019-01-15T06:43:36.834Z,2.40
2019-01-15T06:46:20.984Z,2.40
2019-01-15T06:49:03.839Z,2.50
2019-01-15T06:51:45.622Z,2.50
2019-01-15T06:54:28.005Z,2.60
2019-01-15T06:57:12.038Z,2.60
2019-01-15T06:59:55.993Z,2.70
2019-01-15T07:02:37.685Z,2.70
2019-01-15T07:05:19.737Z,2.80
2019-01-15T07:08:01.830Z,2.80
2019-01-15T07:10:43.416Z,2.90
2019-01-15T07:13:25.500Z,3.00
2019-01-15T07:16:08.291Z,3.00
2019-01-15T07:18:50.257Z,3.10
2019-01-15T07:21:32.542Z,3.10
2019-01-15T07:24:16.822Z,3.20
2019-01-15T07:26:59.288Z,3.30
2019-01-15T07:29:41.633Z,3.40
2019-01-15T07:32:23.468Z,3.40
2019-01-15T07:35:05.690Z,3.40
2019-01-15T07:37:48.657Z,3.30
2019-01-15T07:40:32.569Z,3.40
2019-01-15T07:43:14.377Z,3.30
2019-01-15T07:45:56.221Z,3.30
2019-01-15T07:48:37.997Z,3.30
2019-01-15T07:51:22.281Z,3.30
2019-01-15T07:54:04.157Z,3.30
2019-01-15T07:56:48.325Z,3.30
2019-01-15T07:59:30.404Z,3.30
2019-01-15T08:02:13.826Z,3.30
2019-01-15T08:04:56.150Z,3.30
2019-01-15T08:07:38.361Z,3.30
2019-01-15T08:10:20.259Z,3.30
2019-01-15T08:13:02.354Z,3.40
2019-01-15T08:15:44.277Z,3.40
2019-01-15T08:18:26.053Z,3.40
2019-01-15T08:21:08.896Z,3.50
2019-01-15T08:23:52.933Z,3.50
2019-01-15T08:26:35.694Z,3.50
2019-01-15T08:29:17.935Z,3.50
2019-01-15T08:32:01.021Z,3.50
2019-01-15T08:34:44.833Z,3.60
2019-01-15T08:37:28.006Z,3.60
2019-01-15T08:40:11.950Z,3.60
2019-01-15T08:42:58.087Z,3.60
2019-01-15T08:45:42.106Z,3.60
2019-01-15T08:48:25.647Z,3.60
2019-01-15T08:51:09.314Z,3.60
2019-01-15T08:53:55.994Z,3.70
2019-01-15T08:56:37.890Z,3.70
2019-01-15T08:59:20.813Z,3.70
2019-01-15T09:02:02.833Z,3.80
2019-01-15T09:04:45.146Z,3.70
2019-01-15T09:07:27.517Z,3.80
2019-01-15T09:10:09.717Z,3.80
2019-01-15T09:12:51.648Z,3.80
2019-01-15T09:15:33.948Z,3.80
2019-01-15T09:18:16.044Z,3.80
2019-01-15T09:20:59.020Z,3.90
2019-01-15T09:23:42.934Z,3.90
2019-01-15T09:26:24.856Z,4.00
2019-01-15T09:29:07.065Z,4.10
2019-01-15T09:31:51.608Z,4.10
2019-01-15T09:34:33.658Z,4.10
2019-01-15T09:37:16.707Z,4.10
2019-01-15T09:40:00.672Z,4.10
2019-01-15T09:42:43.461Z,4.20
2019-01-15T09:45:27.677Z,4.20
2019-01-15T09:48:10.687Z,4.20
2019-01-15T09:50:52.498Z,4.20
2019-01-15T09:53:22.875Z,4.20
2019-01-15T09:56:05.148Z,4.30
2019-01-15T09:58:47.184Z,4.30
2019-01-15T10:01:31.242Z,4.30
2019-01-15T10:04:13.276Z,4.30
2019-01-15T10:06:57.492Z,4.30
2019-01-15T10:09:39.307Z,4.30
2019-01-15T10:12:21.296Z,4.30
2019-01-15T10:15:03.249Z,4.30
2019-01-15T10:17:47.290Z,4.30
2019-01-15T10:20:31.341Z,4.30
2019-01-15T10:23:15.198Z,4.30
2019-01-15T10:26:00.962Z,4.40
2019-01-15T10:28:42.737Z,4.40
2019-01-15T10:31:25.177Z,4.40
2019-01-15T10:34:07.028Z,4.50
2019-01-15T10:36:49.001Z,4.50
2019-01-15T10:39:30.863Z,4.40
2019-01-15T10:42:13.603Z,4.50
2019-01-15T10:44:57.552Z,4.50
2019-01-15T10:47:39.603Z,4.50
2019-01-15T10:50:23.385Z,4.50
2019-01-15T10:53:05.355Z,4.50
2019-01-15T10:55:47.491Z,4.60
2019-01-15T10:58:29.627Z,4.60
2019-01-15T11:01:11.686Z,4.60
2019-01-15T11:03:42.169Z,4.60
2019-01-15T11:06:31.605Z,4.60
2019-01-15T11:09:15.228Z,4.70
2019-01-15T11:11:59.537Z,4.70
2019-01-15T11:14:42.041Z,4.80
2019-01-15T11:17:23.793Z,4.80
2019-01-15T11:20:05.839Z,4.90
2019-01-15T11:22:47.648Z,5.10
2019-01-15T11:25:29.830Z,5.30
2019-01-15T11:28:11.575Z,5.40
2019-01-15T11:30:54.702Z,5.60
2019-01-15T11:33:38.869Z,5.70
2019-01-15T11:36:21.742Z,5.80
2019-01-15T11:39:07.044Z,5.90
2019-01-15T11:41:49.273Z,6.00
2019-01-15T11:44:31.389Z,6.10
2019-01-15T11:47:13.284Z,6.30
2019-01-15T11:49:57.166Z,6.30
2019-01-15T11:52:41.486Z,6.30
2019-01-15T11:55:26.290Z,6.20
2019-01-15T11:58:08.289Z,6.00
2019-01-15T12:04:31.050Z,5.90
2019-01-15T12:07:35.075Z,5.90
2019-01-15T12:10:41.898Z,5.90
2019-01-15T12:13:35.645Z,6.00
2019-01-15T12:16:38.318Z,6.10
2019-01-15T12:19:39.146Z,6.30
2019-01-15T12:22:40.559Z,6.50
2019-01-15T12:25:41.774Z,6.50
2019-01-15T12:28:45.637Z,6.40
2019-01-15T12:31:47.896Z,6.30
2019-01-15T12:34:50.937Z,6.30
2019-01-15T12:37:52.953Z,6.30
2019-01-15T12:40:56.880Z,6.30
2019-01-15T12:44:00.956Z,6.20
2019-01-15T12:47:04.328Z,6.20
2019-01-15T12:49:53.339Z,6.20
2019-01-15T12:52:56.405Z,6.10
2019-01-15T12:55:58.410Z,6.10
2019-01-15T12:59:02.563Z,6.20
2019-01-15T13:02:03.860Z,6.30
2019-01-15T13:05:06.836Z,6.30
2019-01-15T13:08:09.502Z,6.50
2019-01-15T13:11:11.438Z,6.60
2019-01-15T13:14:14.195Z,6.50
2019-01-15T13:17:17.270Z,6.50
2019-01-15T13:20:19.166Z,6.30
2019-01-15T13:23:21.952Z,6.20
2019-01-15T13:26:19.802Z,6.00
2019-01-15T13:29:23.698Z,5.80
2019-01-15T13:35:27.638Z,5.60
2019-01-15T13:38:29.858Z,5.60
2019-01-15T13:41:33.638Z,5.60
2019-01-15T13:44:38.038Z,5.70
2019-01-15T13:47:38.557Z,5.80
2019-01-15T13:50:41.441Z,5.90
2019-01-15T13:53:36.791Z,5.90
2019-01-15T13:56:39.600Z,5.90
2019-01-15T13:59:46.208Z,5.80
2019-01-15T14:02:43.506Z,5.80
2019-01-15T14:08:31.959Z,5.70
2019-01-15T14:14:15.087Z,5.70
2019-01-15T14:17:15.901Z,5.60
2019-01-15T14:20:16.584Z,5.60
2019-01-15T14:23:17.196Z,5.50
2019-01-15T14:26:20.639Z,5.40
2019-01-15T14:32:53.456Z,5.30
2019-01-15T14:35:48.865Z,5.10
2019-01-15T14:38:31.481Z,5.10
2019-01-15T14:44:18.087Z,5.00
2019-01-15T14:47:21.058Z,5.00
2019-01-15T14:50:04.063Z,5.00
2019-01-15T14:53:06.965Z,5.00
2019-01-15T14:56:10.845Z,4.90
2019-01-15T15:02:19.775Z,4.90
2019-01-15T15:05:21.397Z,4.90
2019-01-15T15:08:04.326Z,4.90
2019-01-15T15:13:51.771Z,4.90
2019-01-15T15:16:54.271Z,4.90
2019-01-15T15:19:56.287Z,4.90
2019-01-15T15:22:58.164Z,4.90
2019-01-15T15:25:59.229Z,4.80
2019-01-15T15:29:01.114Z,4.70
2019-01-15T15:32:03.718Z,4.70
2019-01-15T15:38:13.949Z,4.70
2019-01-15T15:41:18.151Z,4.70
2019-01-15T15:44:22.120Z,4.60
2019-01-15T15:47:22.737Z,4.60
2019-01-15T15:50:26.322Z,4.60
2019-01-15T15:53:32.735Z,4.60
2019-01-15T15:56:15.647Z,4.60
2019-01-15T16:02:20.958Z,4.60
2019-01-15T16:05:23.060Z,4.70
2019-01-15T16:08:05.843Z,4.80
2019-01-15T16:11:03.132Z,4.80
2019-01-15T16:13:46.306Z,4.80
2019-01-15T16:16:41.561Z,4.80
2019-01-15T16:19:43.674Z,4.80
2019-01-15T16:22:26.279Z,4.90
2019-01-15T16:28:09.955Z,4.90
2019-01-15T16:31:11.383Z,4.90
2019-01-15T16:34:13.497Z,5.00
2019-01-15T16:37:17.390Z,5.00
2019-01-15T16:40:21.445Z,5.00
2019-01-15T16:43:25.657Z,5.00
2019-01-15T16:46:29.587Z,5.00
2019-01-15T16:49:33.629Z,5.00
2019-01-15T16:52:34.608Z,5.00
2019-01-15T16:55:38.601Z,5.00
2019-01-15T16:58:40.331Z,5.00
2019-01-15T17:01:47.155Z,5.00
2019-01-15T17:04:50.949Z,5.00
2019-01-15T17:10:57.778Z,5.00
2019-01-15T17:14:03.696Z,5.00
2019-01-15T17:17:06.416Z,5.30
2019-01-15T17:20:10.545Z,5.30
2019-01-15T17:23:16.273Z,5.20
2019-01-15T17:26:20.465Z,5.20
2019-01-15T17:29:24.119Z,5.10
2019-01-15T17:35:10.069Z,5.00
2019-01-15T17:38:11.909Z,5.00
2019-01-15T17:41:29.466Z,5.00
2019-01-15T17:44:29.012Z,5.00
2019-01-15T17:47:33.028Z,5.00
2019-01-15T17:50:35.988Z,5.10
2019-01-15T17:53:36.875Z,5.00
2019-01-15T17:56:40.849Z,5.00
2019-01-15T17:59:50.444Z,5.00
2019-01-15T18:02:57.204Z,5.10
2019-01-15T18:05:39.687Z,5.10
2019-01-15T18:11:49.969Z,5.00
2019-01-15T18:14:50.922Z,5.00
2019-01-15T18:17:51.697Z,5.00
2019-01-15T18:24:13.733Z,5.00
2019-01-15T18:27:21.326Z,5.00
2019-01-15T18:30:30.888Z,5.00
2019-01-15T18:33:35.530Z,5.00
2019-01-15T18:46:01.445Z,5.20
2019-01-15T18:49:04.310Z,5.20
2019-01-15T18:52:08.653Z,5.20
2019-01-15T18:57:53.128Z,5.10
2019-01-15T19:00:55.583Z,5.10
2019-01-15T19:03:59.645Z,5.10
2019-01-15T19:07:03.610Z,5.10
2019-01-15T19:10:07.538Z,5.10
2019-01-15T19:13:14.200Z,5.10
2019-01-15T19:16:11.040Z,5.10
2019-01-15T19:19:12.025Z,5.10
2019-01-15T19:22:06.662Z,5.00
2019-01-15T19:27:50.278Z,5.00
2019-01-15T19:30:52.337Z,5.10
2019-01-15T19:33:49.813Z,5.10
2019-01-15T19:36:57.083Z,5.00
2019-01-15T19:39:40.169Z,4.90
2019-01-15T19:42:43.074Z,4.90
2019-01-15T19:45:45.173Z,4.80
2019-01-15T19:48:42.598Z,4.80
2019-01-15T19:51:44.395Z,4.80
2019-01-15T19:54:46.650Z,4.80
2019-01-15T19:57:37.417Z,4.70
2019-01-15T20:00:41.104Z,4.70
2019-01-15T20:03:45.160Z,4.70
2019-01-15T20:06:46.272Z,4.70
2019-01-15T20:09:45.395Z,4.70
2019-01-15T20:12:39.781Z,4.70
2019-01-15T20:15:24.177Z,4.70
2019-01-15T20:21:02.494Z,4.70
2019-01-15T20:23:54.924Z,4.60
2019-01-15T20:26:56.797Z,4.60
2019-01-15T20:30:20.444Z,4.60
2019-01-15T20:33:20.972Z,4.60
2019-01-15T20:36:27.817Z,4.60
2019-01-15T20:39:24.636Z,4.60
2019-01-15T20:42:16.674Z,4.60
2019-01-15T20:45:21.119Z,4.70
2019-01-15T20:48:24.696Z,4.60
2019-01-15T20:51:22.982Z,4.70
2019-01-15T20:54:25.725Z,4.60
2019-01-15T20:57:29.618Z,4.60
2019-01-15T21:00:19.537Z,4.60
2019-01-15T21:03:26.562Z,4.70
2019-01-15T21:09:38.154Z,4.70
2019-01-15T21:12:41.051Z,4.80
2019-01-15T21:15:43.875Z,4.80
2019-01-15T21:18:48.036Z,4.90
2019-01-15T21:21:51.921Z,4.80
2019-01-15T21:24:55.888Z,4.90
2019-01-15T21:30:56.947Z,4.90
2019-01-15T21:34:01.039Z,5.00
2019-01-15T21:37:02.042Z,5.10
2019-01-15T21:40:04.117Z,5.10
2019-01-15T21:43:05.240Z,5.20
2019-01-15T21:45:58.171Z,5.20
2019-01-15T21:49:01.717Z,5.20
2019-01-15T21:55:05.310Z,5.30
2019-01-15T21:58:00.454Z,5.30
2019-01-15T22:01:03.296Z,5.30
2019-01-15T22:04:05.921Z,5.20
2019-01-15T22:07:11.705Z,5.20
2019-01-15T22:10:13.802Z,5.30
2019-01-15T22:13:17.943Z,5.30
2019-01-15T22:16:15.833Z,5.30
2019-01-15T22:18:58.523Z,5.30
2019-01-15T22:22:02.211Z,5.30
2019-01-15T22:25:03.993Z,5.30
2019-01-15T22:31:09.277Z,5.20
2019-01-15T22:34:12.041Z,5.20
2019-01-15T22:37:01.352Z,5.20
2019-01-15T22:40:02.832Z,5.20
2019-01-15T22:43:06.884Z,5.20
2019-01-15T22:46:11.693Z,5.30
2019-01-15T22:49:04.125Z,5.30
2019-01-15T22:52:08.645Z,5.20
2019-01-15T22:55:14.555Z,5.20
2019-01-15T22:58:20.729Z,5.20
2019-01-15T23:01:23.173Z,5.30
2019-01-15T23:04:30.055Z,5.20
2019-01-15T23:07:31.108Z,5.30
2019-01-15T23:10:25.824Z,5.30
2019-01-15T23:13:14.760Z,5.30
2019-01-15T23:16:17.794Z,5.30
2019-01-15T23:19:20.447Z,5.20
2019-01-15T23:22:20.708Z,5.20
2019-01-15T23:25:24.754Z,5.20
2019-01-15T23:28:28.013Z,5.10
2019-01-15T23:31:11.110Z,5.10
2019-01-15T23:34:17.570Z,5.10
2019-01-15T23:37:21.800Z,5.00
2019-01-15T23:40:22.988Z,5.00
2019-01-15T23:43:26.765Z,5.00
2019-01-15T23:49:15.282Z,4.90
2019-01-15T23:52:16.247Z,4.90
2019-01-15T23:55:18.142Z,4.80
2019-01-15T23:58:09.941Z,4.80
